sensor_id;sensor_type;location;lat;lon;timestamp;pressure;altitude;pressure_sealevel;temperature;humidity
20023;BME280;10172;42.054;24.546;2022-08-01T00:01:01;97855.16;;;24.36;66.22
20023;BME280;10172;42.054;24.546;2022-08-01T00:03:26;97863.38;;;24.43;65.93
20023;BME280;10172;42.054;24.546;2022-08-01T00:05:52;97855.22;;;24.90;64.46
20023;BME280;10172;42.054;24.546;2022-08-01T00:08:17;97854.91;;;24.65;64.59
20023;BME280;10172;42.054;24.546;2022-08-01T00:10:43;97862.06;;;24.32;66.63
20023;BME280;10172;42.054;24.546;2022-08-01T00:13:08;97868.56;;;24.78;63.75
20023;BME280;10172;42.054;24.546;2022-08-01T00:15:34;97858.59;;;24.51;65.23
20023;BME280;10172;42.054;24.546;2022-08-01T00:17:59;97865.06;;;23.88;66.54
20023;BME280;10172;42.054;24.546;2022-08-01T00:20:25;97848.16;;;24.14;66.13
20023;BME280;10172;42.054;24.546;2022-08-01T00:22:50;97859.13;;;24.33;65.84
20023;BME280;10172;42.054;24.546;2022-08-01T00:25:16;97853.34;;;24.43;64.85
20023;BME280;10172;42.054;24.546;2022-08-01T00:27:41;97856.28;;;23.86;67.16
20023;BME280;10172;42.054;24.546;2022-08-01T00:30:07;97852.38;;;23.67;67.67
20023;BME280;10172;42.054;24.546;2022-08-01T00:32:32;97862.72;;;23.78;67.83
20023;BME280;10172;42.054;24.546;2022-08-01T00:34:58;97854.72;;;23.49;68.70
20023;BME280;10172;42.054;24.546;2022-08-01T00:37:23;97858.59;;;23.19;69.64
20023;BME280;10172;42.054;24.546;2022-08-01T00:39:49;97852.13;;;23.41;68.70
20023;BME280;10172;42.054;24.546;2022-08-01T00:42:14;97855.75;;;23.27;69.49
20023;BME280;10172;42.054;24.546;2022-08-01T00:44:40;97855.63;;;23.56;68.57
20023;BME280;10172;42.054;24.546;2022-08-01T00:47:06;97866.00;;;24.02;67.04
20023;BME280;10172;42.054;24.546;2022-08-01T00:49:32;97866.53;;;23.63;68.35
20023;BME280;10172;42.054;24.546;2022-08-01T00:51:59;97852.44;;;24.02;67.46
20023;BME280;10172;42.054;24.546;2022-08-01T00:54:26;97848.13;;;23.58;68.32
20023;BME280;10172;42.054;24.546;2022-08-01T00:56:52;97849.03;;;23.65;67.95
20023;BME280;10172;42.054;24.546;2022-08-01T00:59:18;97851.34;;;23.05;71.73
20023;BME280;10172;42.054;24.546;2022-08-01T01:01:45;97856.50;;;23.21;70.48
20023;BME280;10172;42.054;24.546;2022-08-01T01:04:11;97847.13;;;22.67;74.51
20023;BME280;10172;42.054;24.546;2022-08-01T01:12:19;97854.56;;;23.15;70.00
20023;BME280;10172;42.054;24.546;2022-08-01T01:18:02;97848.63;;;23.05;70.78
20023;BME280;10172;42.054;24.546;2022-08-01T01:20:30;97857.41;;;23.28;68.66
20023;BME280;10172;42.054;24.546;2022-08-01T01:28:38;97855.88;;;22.98;68.31
20023;BME280;10172;42.054;24.546;2022-08-01T01:31:07;97848.16;;;22.51;70.65
20023;BME280;10172;42.054;24.546;2022-08-01T01:33:36;97856.13;;;23.03;69.04
20023;BME280;10172;42.054;24.546;2022-08-01T01:36:05;97871.44;;;23.10;69.10
20023;BME280;10172;42.054;24.546;2022-08-01T01:38:35;97851.56;;;22.89;69.71
20023;BME280;10172;42.054;24.546;2022-08-01T01:41:02;97858.97;;;23.16;68.62
20023;BME280;10172;42.054;24.546;2022-08-01T01:43:29;97853.19;;;23.04;68.20
20023;BME280;10172;42.054;24.546;2022-08-01T01:45:56;97858.25;;;23.07;68.66
20023;BME280;10172;42.054;24.546;2022-08-01T01:48:23;97855.13;;;22.89;68.88
20023;BME280;10172;42.054;24.546;2022-08-01T01:50:51;97845.91;;;23.05;68.09
20023;BME280;10172;42.054;24.546;2022-08-01T01:53:20;97856.75;;;22.84;69.31
20023;BME280;10172;42.054;24.546;2022-08-01T01:55:49;97857.66;;;23.12;67.87
20023;BME280;10172;42.054;24.546;2022-08-01T01:58:17;97845.34;;;22.59;68.79
20023;BME280;10172;42.054;24.546;2022-08-01T02:00:46;97860.22;;;22.78;68.84
20023;BME280;10172;42.054;24.546;2022-08-01T02:03:13;97861.47;;;22.96;67.59
20023;BME280;10172;42.054;24.546;2022-08-01T02:05:40;97859.44;;;22.84;67.61
20023;BME280;10172;42.054;24.546;2022-08-01T02:08:07;97850.72;;;22.88;67.56
20023;BME280;10172;42.054;24.546;2022-08-01T02:10:35;97855.75;;;23.06;66.92
20023;BME280;10172;42.054;24.546;2022-08-01T02:13:03;97862.69;;;23.15;66.79
20023;BME280;10172;42.054;24.546;2022-08-01T02:15:31;97858.25;;;22.72;68.09
20023;BME280;10172;42.054;24.546;2022-08-01T02:17:59;97859.16;;;23.14;66.43
20023;BME280;10172;42.054;24.546;2022-08-01T02:20:27;97857.75;;;22.83;67.16
20023;BME280;10172;42.054;24.546;2022-08-01T02:23:00;97862.75;;;23.57;64.95
20023;BME280;10172;42.054;24.546;2022-08-01T02:25:31;97856.81;;;23.11;65.97
20023;BME280;10172;42.054;24.546;2022-08-01T02:27:59;97856.84;;;22.76;66.96
20023;BME280;10172;42.054;24.546;2022-08-01T02:30:32;97859.72;;;23.10;65.34
20023;BME280;10172;42.054;24.546;2022-08-01T02:33:03;97855.69;;;22.85;67.39
20023;BME280;10172;42.054;24.546;2022-08-01T02:35:32;97856.00;;;22.75;69.34
20023;BME280;10172;42.054;24.546;2022-08-01T02:38:00;97871.97;;;22.55;69.16
20023;BME280;10172;42.054;24.546;2022-08-01T02:40:27;97872.63;;;22.57;68.81
20023;BME280;10172;42.054;24.546;2022-08-01T02:42:54;97870.06;;;21.83;73.13
20023;BME280;10172;42.054;24.546;2022-08-01T02:45:25;97863.50;;;21.63;72.60
20023;BME280;10172;42.054;24.546;2022-08-01T02:47:54;97870.00;;;21.54;73.57
20023;BME280;10172;42.054;24.546;2022-08-01T02:50:21;97863.72;;;21.76;72.40
20023;BME280;10172;42.054;24.546;2022-08-01T02:52:50;97858.53;;;22.03;72.47
20023;BME280;10172;42.054;24.546;2022-08-01T02:55:17;97858.06;;;21.48;73.45
20023;BME280;10172;42.054;24.546;2022-08-01T02:57:44;97850.09;;;21.46;74.38
20023;BME280;10172;42.054;24.546;2022-08-01T03:00:13;97857.81;;;21.35;72.61
20023;BME280;10172;42.054;24.546;2022-08-01T03:02:39;97865.69;;;21.44;75.46
20023;BME280;10172;42.054;24.546;2022-08-01T03:05:06;97843.31;;;21.05;76.84
20023;BME280;10172;42.054;24.546;2022-08-01T03:07:34;97852.69;;;20.95;76.71
20023;BME280;10172;42.054;24.546;2022-08-01T03:10:00;97855.34;;;21.25;74.82
20023;BME280;10172;42.054;24.546;2022-08-01T03:12:27;97860.91;;;21.01;76.21
20023;BME280;10172;42.054;24.546;2022-08-01T03:14:56;97862.31;;;21.65;72.96
20023;BME280;10172;42.054;24.546;2022-08-01T03:17:24;97842.06;;;21.76;71.94
20023;BME280;10172;42.054;24.546;2022-08-01T03:19:52;97845.16;;;21.35;72.16
20023;BME280;10172;42.054;24.546;2022-08-01T03:22:18;97846.31;;;21.56;70.30
20023;BME280;10172;42.054;24.546;2022-08-01T03:24:47;97838.47;;;21.61;71.03
20023;BME280;10172;42.054;24.546;2022-08-01T03:27:15;97850.22;;;21.30;70.67
20023;BME280;10172;42.054;24.546;2022-08-01T03:29:41;97843.88;;;21.23;72.12
20023;BME280;10172;42.054;24.546;2022-08-01T03:32:09;97852.28;;;21.66;69.54
20023;BME280;10172;42.054;24.546;2022-08-01T03:34:36;97848.66;;;21.59;69.17
20023;BME280;10172;42.054;24.546;2022-08-01T03:37:12;97846.75;;;21.44;70.62
20023;BME280;10172;42.054;24.546;2022-08-01T03:39:44;97841.88;;;21.17;70.19
20023;BME280;10172;42.054;24.546;2022-08-01T03:42:16;97839.72;;;21.35;70.04
20023;BME280;10172;42.054;24.546;2022-08-01T03:44:59;97844.16;;;21.28;69.68
20023;BME280;10172;42.054;24.546;2022-08-01T03:50:32;97840.47;;;20.99;70.03
20023;BME280;10172;42.054;24.546;2022-08-01T03:53:00;97839.81;;;20.97;72.27
20023;BME280;10172;42.054;24.546;2022-08-01T03:55:27;97842.44;;;21.13;71.44
20023;BME280;10172;42.054;24.546;2022-08-01T03:57:53;97839.84;;;20.66;73.13
20023;BME280;10172;42.054;24.546;2022-08-01T04:00:19;97828.41;;;20.86;69.53
20023;BME280;10172;42.054;24.546;2022-08-01T04:02:47;97837.59;;;21.08;68.59
20023;BME280;10172;42.054;24.546;2022-08-01T04:05:13;97829.06;;;21.34;64.61
20023;BME280;10172;42.054;24.546;2022-08-01T04:07:39;97824.16;;;21.52;62.99
20023;BME280;10172;42.054;24.546;2022-08-01T04:10:05;97820.84;;;21.65;61.89
20023;BME280;10172;42.054;24.546;2022-08-01T04:12:31;97830.63;;;22.18;64.44
20023;BME280;10172;42.054;24.546;2022-08-01T04:14:58;97824.50;;;21.72;63.66
20023;BME280;10172;42.054;24.546;2022-08-01T04:17:23;97829.06;;;21.71;61.79
20023;BME280;10172;42.054;24.546;2022-08-01T04:19:50;97823.63;;;21.94;60.67
20023;BME280;10172;42.054;24.546;2022-08-01T04:22:15;97835.44;;;21.78;61.20
20023;BME280;10172;42.054;24.546;2022-08-01T04:24:42;97831.28;;;22.05;59.65
20023;BME280;10172;42.054;24.546;2022-08-01T04:27:13;97820.00;;;22.16;58.07
20023;BME280;10172;42.054;24.546;2022-08-01T04:29:40;97824.94;;;22.27;58.72
20023;BME280;10172;42.054;24.546;2022-08-01T04:32:08;97832.44;;;22.76;56.49
20023;BME280;10172;42.054;24.546;2022-08-01T04:34:37;97834.03;;;22.55;56.63
20023;BME280;10172;42.054;24.546;2022-08-01T04:37:07;97828.06;;;22.45;56.41
20023;BME280;10172;42.054;24.546;2022-08-01T04:39:37;97824.16;;;22.33;57.22
20023;BME280;10172;42.054;24.546;2022-08-01T04:42:05;97823.13;;;22.63;58.70
20023;BME280;10172;42.054;24.546;2022-08-01T04:44:32;97831.31;;;23.27;57.28
20023;BME280;10172;42.054;24.546;2022-08-01T04:47:02;97829.69;;;22.40;57.90
20023;BME280;10172;42.054;24.546;2022-08-01T04:49:31;97830.53;;;22.40;57.14
20023;BME280;10172;42.054;24.546;2022-08-01T04:51:56;97820.53;;;22.91;58.22
20023;BME280;10172;42.054;24.546;2022-08-01T04:54:29;97839.09;;;23.30;62.13
20023;BME280;10172;42.054;24.546;2022-08-01T04:56:55;97841.03;;;23.57;65.52
20023;BME280;10172;42.054;24.546;2022-08-01T04:59:27;97842.28;;;24.10;63.24
20023;BME280;10172;42.054;24.546;2022-08-01T05:04:35;97848.63;;;23.68;65.89
20023;BME280;10172;42.054;24.546;2022-08-01T05:07:01;97845.63;;;24.12;64.85
20023;BME280;10172;42.054;24.546;2022-08-01T05:09:27;97842.81;;;23.29;66.55
20023;BME280;10172;42.054;24.546;2022-08-01T05:11:52;97854.81;;;23.20;68.36
20023;BME280;10172;42.054;24.546;2022-08-01T05:14:18;97853.31;;;22.31;71.77
20023;BME280;10172;42.054;24.546;2022-08-01T05:16:44;97857.91;;;22.96;70.10
20023;BME280;10172;42.054;24.546;2022-08-01T05:19:11;97848.13;;;23.16;68.66
20023;BME280;10172;42.054;24.546;2022-08-01T05:21:36;97841.88;;;22.80;70.10
20023;BME280;10172;42.054;24.546;2022-08-01T05:24:03;97839.41;;;22.85;69.11
20023;BME280;10172;42.054;24.546;2022-08-01T05:26:29;97845.03;;;22.83;65.99
20023;BME280;10172;42.054;24.546;2022-08-01T05:28:54;97854.56;;;23.15;62.54
20023;BME280;10172;42.054;24.546;2022-08-01T05:31:20;97843.59;;;23.23;63.12
20023;BME280;10172;42.054;24.546;2022-08-01T05:33:45;97849.03;;;23.44;59.61
20023;BME280;10172;42.054;24.546;2022-08-01T05:36:10;97845.28;;;23.24;65.29
20023;BME280;10172;42.054;24.546;2022-08-01T05:38:36;97849.28;;;23.49;60.12
20023;BME280;10172;42.054;24.546;2022-08-01T05:41:01;97856.31;;;23.93;58.67
20023;BME280;10172;42.054;24.546;2022-08-01T05:43:27;97852.41;;;23.74;54.49
20023;BME280;10172;42.054;24.546;2022-08-01T05:45:52;97858.31;;;23.77;52.14
20023;BME280;10172;42.054;24.546;2022-08-01T05:48:18;97858.22;;;23.92;52.85
20023;BME280;10172;42.054;24.546;2022-08-01T05:50:43;97844.00;;;24.18;46.86
20023;BME280;10172;42.054;24.546;2022-08-01T05:53:08;97836.81;;;24.38;46.66
20023;BME280;10172;42.054;24.546;2022-08-01T05:55:35;97842.66;;;24.82;46.09
20023;BME280;10172;42.054;24.546;2022-08-01T05:58:00;97841.38;;;24.78;43.70
20023;BME280;10172;42.054;24.546;2022-08-01T06:00:25;97851.50;;;24.98;44.87
20023;BME280;10172;42.054;24.546;2022-08-01T06:02:51;97849.47;;;24.65;44.38
20023;BME280;10172;42.054;24.546;2022-08-01T06:05:16;97846.38;;;24.75;44.12
20023;BME280;10172;42.054;24.546;2022-08-01T06:07:42;97839.22;;;24.67;43.34
20023;BME280;10172;42.054;24.546;2022-08-01T06:10:08;97840.16;;;24.81;42.06
20023;BME280;10172;42.054;24.546;2022-08-01T06:12:34;97847.25;;;24.82;42.34
20023;BME280;10172;42.054;24.546;2022-08-01T06:15:00;97840.47;;;24.65;43.30
20023;BME280;10172;42.054;24.546;2022-08-01T06:17:25;97850.66;;;25.04;42.67
20023;BME280;10172;42.054;24.546;2022-08-01T06:19:51;97836.06;;;25.18;42.39
20023;BME280;10172;42.054;24.546;2022-08-01T06:22:16;97829.81;;;25.30;42.71
20023;BME280;10172;42.054;24.546;2022-08-01T06:24:42;97832.78;;;25.75;42.31
20023;BME280;10172;42.054;24.546;2022-08-01T06:27:07;97841.59;;;25.70;42.25
20023;BME280;10172;42.054;24.546;2022-08-01T06:29:32;97837.19;;;25.76;41.88
20023;BME280;10172;42.054;24.546;2022-08-01T06:31:58;97840.72;;;25.63;42.82
20023;BME280;10172;42.054;24.546;2022-08-01T06:34:24;97830.22;;;25.40;43.16
20023;BME280;10172;42.054;24.546;2022-08-01T06:36:49;97834.22;;;25.58;42.54
20023;BME280;10172;42.054;24.546;2022-08-01T06:39:15;97828.13;;;26.14;41.75
20023;BME280;10172;42.054;24.546;2022-08-01T06:41:40;97835.63;;;26.39;41.31
20023;BME280;10172;42.054;24.546;2022-08-01T06:44:11;97831.94;;;26.13;41.05
20023;BME280;10172;42.054;24.546;2022-08-01T06:46:37;97816.41;;;25.94;41.46
20023;BME280;10172;42.054;24.546;2022-08-01T06:49:03;97827.50;;;26.12;40.72
20023;BME280;10172;42.054;24.546;2022-08-01T06:51:29;97822.25;;;26.04;40.70
20023;BME280;10172;42.054;24.546;2022-08-01T06:53:54;97814.66;;;26.39;40.13
20023;BME280;10172;42.054;24.546;2022-08-01T06:56:20;97823.44;;;26.48;40.25
20023;BME280;10172;42.054;24.546;2022-08-01T06:58:46;97820.88;;;26.59;38.69
20023;BME280;10172;42.054;24.546;2022-08-01T07:01:12;97809.84;;;26.35;39.77
20023;BME280;10172;42.054;24.546;2022-08-01T07:03:37;97812.53;;;26.48;39.12
20023;BME280;10172;42.054;24.546;2022-08-01T07:06:03;97814.94;;;26.25;40.41
20023;BME280;10172;42.054;24.546;2022-08-01T07:08:29;97814.72;;;25.93;42.05
20023;BME280;10172;42.054;24.546;2022-08-01T07:10:55;97816.63;;;25.99;41.15
20023;BME280;10172;42.054;24.546;2022-08-01T07:13:27;97813.88;;;25.93;40.99
20023;BME280;10172;42.054;24.546;2022-08-01T07:15:52;97818.09;;;26.08;41.48
20023;BME280;10172;42.054;24.546;2022-08-01T07:18:18;97811.81;;;25.75;41.74
20023;BME280;10172;42.054;24.546;2022-08-01T07:20:44;97807.59;;;26.05;40.95
20023;BME280;10172;42.054;24.546;2022-08-01T07:23:11;97811.31;;;26.31;40.49
20023;BME280;10172;42.054;24.546;2022-08-01T07:25:37;97802.91;;;26.39;40.14
20023;BME280;10172;42.054;24.546;2022-08-01T07:28:03;97814.59;;;26.59;40.91
20023;BME280;10172;42.054;24.546;2022-08-01T07:30:28;97802.97;;;27.14;39.52
20023;BME280;10172;42.054;24.546;2022-08-01T07:32:54;97809.41;;;27.58;39.32
20023;BME280;10172;42.054;24.546;2022-08-01T07:35:19;97802.41;;;27.44;38.44
20023;BME280;10172;42.054;24.546;2022-08-01T07:37:45;97802.19;;;27.07;38.46
20023;BME280;10172;42.054;24.546;2022-08-01T07:40:10;97800.75;;;26.98;39.36
20023;BME280;10172;42.054;24.546;2022-08-01T07:42:36;97801.75;;;26.79;39.82
20023;BME280;10172;42.054;24.546;2022-08-01T07:45:01;97794.34;;;26.29;40.86
20023;BME280;10172;42.054;24.546;2022-08-01T07:47:27;97796.47;;;26.71;40.51
20023;BME280;10172;42.054;24.546;2022-08-01T07:49:58;97807.63;;;27.39;39.97
20023;BME280;10172;42.054;24.546;2022-08-01T07:52:24;97798.09;;;27.23;39.31
20023;BME280;10172;42.054;24.546;2022-08-01T07:54:49;97809.97;;;27.42;39.50
20023;BME280;10172;42.054;24.546;2022-08-01T07:57:15;97789.28;;;27.77;38.93
20023;BME280;10172;42.054;24.546;2022-08-01T07:59:40;97810.09;;;27.78;38.59
20023;BME280;10172;42.054;24.546;2022-08-01T08:02:06;97792.25;;;27.51;38.47
20023;BME280;10172;42.054;24.546;2022-08-01T08:04:31;97774.28;;;27.86;38.80
20023;BME280;10172;42.054;24.546;2022-08-01T08:06:56;97799.84;;;27.49;38.05
20023;BME280;10172;42.054;24.546;2022-08-01T08:09:22;97798.50;;;27.26;38.92
20023;BME280;10172;42.054;24.546;2022-08-01T08:11:48;97791.72;;;27.60;39.01
20023;BME280;10172;42.054;24.546;2022-08-01T08:14:15;97783.66;;;28.15;38.00
20023;BME280;10172;42.054;24.546;2022-08-01T08:16:40;97789.69;;;28.05;38.08
20023;BME280;10172;42.054;24.546;2022-08-01T08:19:05;97779.22;;;27.21;38.72
20023;BME280;10172;42.054;24.546;2022-08-01T08:21:31;97769.63;;;27.44;39.30
20023;BME280;10172;42.054;24.546;2022-08-01T08:23:56;97773.09;;;27.26;40.25
20023;BME280;10172;42.054;24.546;2022-08-01T08:26:40;97773.16;;;27.69;40.02
20023;BME280;10172;42.054;24.546;2022-08-01T08:29:06;97781.44;;;27.87;39.54
20023;BME280;10172;42.054;24.546;2022-08-01T08:31:31;97761.59;;;28.16;39.55
20023;BME280;10172;42.054;24.546;2022-08-01T08:33:57;97775.47;;;27.72;39.27
20023;BME280;10172;42.054;24.546;2022-08-01T08:36:23;97772.59;;;27.60;39.80
20023;BME280;10172;42.054;24.546;2022-08-01T08:38:48;97768.16;;;27.66;38.72
20023;BME280;10172;42.054;24.546;2022-08-01T08:41:14;97764.50;;;27.97;37.94
20023;BME280;10172;42.054;24.546;2022-08-01T08:43:39;97769.34;;;27.76;38.19
20023;BME280;10172;42.054;24.546;2022-08-01T08:46:07;97757.88;;;27.86;39.04
20023;BME280;10172;42.054;24.546;2022-08-01T08:48:34;97759.19;;;27.59;39.10
20023;BME280;10172;42.054;24.546;2022-08-01T08:51:01;97781.47;;;28.05;38.54
20023;BME280;10172;42.054;24.546;2022-08-01T08:53:27;97763.81;;;28.01;39.54
20023;BME280;10172;42.054;24.546;2022-08-01T08:55:54;97772.22;;;28.24;38.72
20023;BME280;10172;42.054;24.546;2022-08-01T08:58:21;97757.88;;;28.11;38.61
20023;BME280;10172;42.054;24.546;2022-08-01T09:00:47;97747.25;;;28.69;39.16
20023;BME280;10172;42.054;24.546;2022-08-01T09:03:13;97747.91;;;28.34;38.97
20023;BME280;10172;42.054;24.546;2022-08-01T09:05:38;97747.13;;;28.09;40.10
20023;BME280;10172;42.054;24.546;2022-08-01T09:08:07;97764.75;;;28.49;38.43
20023;BME280;10172;42.054;24.546;2022-08-01T09:10:33;97758.06;;;28.45;37.99
20023;BME280;10172;42.054;24.546;2022-08-01T09:13:13;97748.56;;;28.12;38.19
20023;BME280;10172;42.054;24.546;2022-08-01T09:18:05;97745.44;;;28.81;37.60
20023;BME280;10172;42.054;24.546;2022-08-01T09:20:31;97751.38;;;28.41;37.58
20023;BME280;10172;42.054;24.546;2022-08-01T09:22:59;97745.38;;;28.15;38.49
20023;BME280;10172;42.054;24.546;2022-08-01T09:25:25;97743.84;;;28.01;39.13
20023;BME280;10172;42.054;24.546;2022-08-01T09:28:05;97734.00;;;28.18;38.78
20023;BME280;10172;42.054;24.546;2022-08-01T09:30:38;97730.59;;;28.22;38.73
20023;BME280;10172;42.054;24.546;2022-08-01T09:33:05;97723.75;;;28.79;38.30
20023;BME280;10172;42.054;24.546;2022-08-01T09:35:34;97732.69;;;28.57;37.47
20023;BME280;10172;42.054;24.546;2022-08-01T09:38:18;97722.75;;;27.89;38.59
20023;BME280;10172;42.054;24.546;2022-08-01T09:40:59;97718.16;;;28.08;39.53
20023;BME280;10172;42.054;24.546;2022-08-01T09:43:29;97728.72;;;27.98;39.01
20023;BME280;10172;42.054;24.546;2022-08-01T09:45:56;97731.34;;;28.29;37.36
20023;BME280;10172;42.054;24.546;2022-08-01T09:48:22;97710.41;;;28.53;37.17
20023;BME280;10172;42.054;24.546;2022-08-01T09:50:50;97704.97;;;28.83;37.58
20023;BME280;10172;42.054;24.546;2022-08-01T09:53:16;97722.88;;;28.67;38.78
20023;BME280;10172;42.054;24.546;2022-08-01T09:55:42;97700.31;;;28.83;38.51
20023;BME280;10172;42.054;24.546;2022-08-01T09:58:08;97716.34;;;28.68;38.08
20023;BME280;10172;42.054;24.546;2022-08-01T10:00:36;97703.78;;;28.79;37.99
20023;BME280;10172;42.054;24.546;2022-08-01T10:03:25;97715.84;;;29.01;37.26
20023;BME280;10172;42.054;24.546;2022-08-01T10:05:51;97712.63;;;29.04;38.08
20023;BME280;10172;42.054;24.546;2022-08-01T10:08:18;97711.81;;;29.15;37.42
20023;BME280;10172;42.054;24.546;2022-08-01T10:11:05;97712.78;;;28.79;36.98
20023;BME280;10172;42.054;24.546;2022-08-01T10:13:32;97709.66;;;28.46;38.39
20023;BME280;10172;42.054;24.546;2022-08-01T10:15:57;97708.84;;;29.05;37.95
20023;BME280;10172;42.054;24.546;2022-08-01T10:18:24;97720.19;;;28.79;38.40
20023;BME280;10172;42.054;24.546;2022-08-01T10:20:49;97709.06;;;29.03;37.73
20023;BME280;10172;42.054;24.546;2022-08-01T10:23:15;97710.38;;;29.66;36.99
20023;BME280;10172;42.054;24.546;2022-08-01T10:25:43;97691.91;;;29.73;37.15
20023;BME280;10172;42.054;24.546;2022-08-01T10:28:14;97701.44;;;29.70;36.26
20023;BME280;10172;42.054;24.546;2022-08-01T10:30:42;97692.97;;;29.95;36.33
20023;BME280;10172;42.054;24.546;2022-08-01T10:33:07;97687.06;;;30.26;36.33
20023;BME280;10172;42.054;24.546;2022-08-01T10:35:34;97685.44;;;30.53;36.39
20023;BME280;10172;42.054;24.546;2022-08-01T10:37:59;97689.06;;;29.79;36.73
20023;BME280;10172;42.054;24.546;2022-08-01T10:40:25;97686.28;;;29.91;35.48
20023;BME280;10172;42.054;24.546;2022-08-01T10:42:53;97680.34;;;29.94;35.92
20023;BME280;10172;42.054;24.546;2022-08-01T10:45:18;97688.69;;;29.76;36.58
20023;BME280;10172;42.054;24.546;2022-08-01T10:47:50;97695.81;;;29.77;36.84
20023;BME280;10172;42.054;24.546;2022-08-01T10:50:27;97698.00;;;29.98;36.43
20023;BME280;10172;42.054;24.546;2022-08-01T10:53:27;97688.94;;;29.62;37.00
20023;BME280;10172;42.054;24.546;2022-08-01T10:56:00;97698.59;;;29.12;36.66
20023;BME280;10172;42.054;24.546;2022-08-01T10:58:37;97684.53;;;28.97;37.76
20023;BME280;10172;42.054;24.546;2022-08-01T11:06:39;97677.94;;;30.09;36.37
20023;BME280;10172;42.054;24.546;2022-08-01T11:09:06;97683.16;;;30.22;35.89
20023;BME280;10172;42.054;24.546;2022-08-01T11:12:05;97677.50;;;30.29;36.33
20023;BME280;10172;42.054;24.546;2022-08-01T11:14:33;97678.56;;;30.96;35.01
20023;BME280;10172;42.054;24.546;2022-08-01T11:25:23;97671.78;;;30.98;32.98
20023;BME280;10172;42.054;24.546;2022-08-01T11:27:48;97667.56;;;30.11;34.71
20023;BME280;10172;42.054;24.546;2022-08-01T11:32:50;97664.25;;;29.51;36.06
20023;BME280;10172;42.054;24.546;2022-08-01T11:35:17;97661.97;;;30.06;36.12
20023;BME280;10172;42.054;24.546;2022-08-01T11:37:42;97662.06;;;30.11;35.27
20023;BME280;10172;42.054;24.546;2022-08-01T11:42:47;97650.72;;;30.19;34.65
20023;BME280;10172;42.054;24.546;2022-08-01T11:45:13;97647.44;;;29.94;35.59
20023;BME280;10172;42.054;24.546;2022-08-01T11:47:47;97648.63;;;29.98;34.19
20023;BME280;10172;42.054;24.546;2022-08-01T11:53:05;97658.31;;;30.40;33.54
20023;BME280;10172;42.054;24.546;2022-08-01T11:55:32;97643.56;;;31.53;33.18
20023;BME280;10172;42.054;24.546;2022-08-01T11:58:06;97652.78;;;30.97;33.47
20023;BME280;10172;42.054;24.546;2022-08-01T12:00:33;97655.63;;;31.02;34.33
20023;BME280;10172;42.054;24.546;2022-08-01T12:03:04;97638.16;;;31.41;32.94
20023;BME280;10172;42.054;24.546;2022-08-01T12:05:31;97637.41;;;30.39;34.56
20023;BME280;10172;42.054;24.546;2022-08-01T12:07:59;97641.97;;;31.40;33.67
20023;BME280;10172;42.054;24.546;2022-08-01T12:10:28;97648.13;;;30.97;33.88
20023;BME280;10172;42.054;24.546;2022-08-01T12:13:01;97651.88;;;30.23;33.97
20023;BME280;10172;42.054;24.546;2022-08-01T12:15:37;97647.94;;;31.04;32.93
20023;BME280;10172;42.054;24.546;2022-08-01T12:18:05;97644.63;;;31.35;32.53
20023;BME280;10172;42.054;24.546;2022-08-01T12:20:33;97644.72;;;31.40;31.40
20023;BME280;10172;42.054;24.546;2022-08-01T12:23:02;97646.63;;;31.39;31.48
20023;BME280;10172;42.054;24.546;2022-08-01T12:25:28;97642.25;;;31.77;31.70
20023;BME280;10172;42.054;24.546;2022-08-01T12:27:54;97644.59;;;31.47;31.37
20023;BME280;10172;42.054;24.546;2022-08-01T12:30:22;97637.31;;;31.57;31.46
20023;BME280;10172;42.054;24.546;2022-08-01T12:32:53;97642.31;;;31.60;30.63
20023;BME280;10172;42.054;24.546;2022-08-01T12:35:25;97649.97;;;31.25;31.45
20023;BME280;10172;42.054;24.546;2022-08-01T12:37:54;97634.50;;;30.57;31.81
20023;BME280;10172;42.054;24.546;2022-08-01T12:40:26;97637.81;;;31.54;31.64
20023;BME280;10172;42.054;24.546;2022-08-01T12:42:57;97635.47;;;31.29;31.25
20023;BME280;10172;42.054;24.546;2022-08-01T12:45:28;97640.13;;;31.29;31.88
20023;BME280;10172;42.054;24.546;2022-08-01T12:47:56;97627.47;;;31.28;31.36
20023;BME280;10172;42.054;24.546;2022-08-01T12:50:27;97634.78;;;31.72;31.44
20023;BME280;10172;42.054;24.546;2022-08-01T12:52:57;97640.63;;;31.43;31.60
20023;BME280;10172;42.054;24.546;2022-08-01T12:55:26;97625.81;;;31.27;31.88
20023;BME280;10172;42.054;24.546;2022-08-01T12:58:07;97631.47;;;31.04;32.38
20023;BME280;10172;42.054;24.546;2022-08-01T13:00:33;97615.13;;;31.64;31.90
20023;BME280;10172;42.054;24.546;2022-08-01T13:08:11;97626.63;;;31.61;31.45
20023;BME280;10172;42.054;24.546;2022-08-01T15:10:05;97604.97;;;31.64;32.26
20023;BME280;10172;42.054;24.546;2022-08-01T15:12:31;97609.59;;;31.80;32.55
20023;BME280;10172;42.054;24.546;2022-08-01T15:14:57;97607.72;;;31.64;31.98
20023;BME280;10172;42.054;24.546;2022-08-01T15:17:28;97616.53;;;32.05;31.50
20023;BME280;10172;42.054;24.546;2022-08-01T15:19:55;97608.69;;;31.96;32.44
20023;BME280;10172;42.054;24.546;2022-08-01T15:22:22;97620.88;;;31.46;33.12
20023;BME280;10172;42.054;24.546;2022-08-01T15:24:49;97607.56;;;31.92;32.59
20023;BME280;10172;42.054;24.546;2022-08-01T15:27:15;97615.19;;;31.14;33.39
20023;BME280;10172;42.054;24.546;2022-08-01T15:29:40;97611.50;;;31.25;33.43
20023;BME280;10172;42.054;24.546;2022-08-01T15:32:07;97623.00;;;31.22;33.33
20023;BME280;10172;42.054;24.546;2022-08-01T15:34:34;97612.72;;;31.67;33.53
20023;BME280;10172;42.054;24.546;2022-08-01T15:37:00;97605.69;;;31.76;33.08
20023;BME280;10172;42.054;24.546;2022-08-01T15:39:26;97614.41;;;31.90;33.09
20023;BME280;10172;42.054;24.546;2022-08-01T15:41:51;97608.69;;;31.96;32.49